sensor_id;sensor_type;location;lat;lon;timestamp;temperature;humidity
18658;DHT22;9458;50.942;5.074;2022-11-14T00:01:13;7.40;99.90
18658;DHT22;9458;50.942;5.074;2022-11-14T00:03:44;7.40;99.90
18658;DHT22;9458;50.942;5.074;2022-11-14T00:06:12;7.40;99.90
18658;DHT22;9458;50.942;5.074;2022-11-14T00:08:39;7.40;99.90
18658;DHT22;9458;50.942;5.074;2022-11-14T00:11:07;7.40;99.90
18658;DHT22;9458;50.942;5.074;2022-11-14T00:13:37;7.30;99.90
18658;DHT22;9458;50.942;5.074;2022-11-14T00:16:04;7.30;99.90
18658;DHT22;9458;50.942;5.074;2022-11-14T00:18:33;7.20;99.90
18658;DHT22;9458;50.942;5.074;2022-11-14T00:21:02;7.20;99.90
18658;DHT22;9458;50.942;5.074;2022-11-14T00:23:29;7.20;99.90
18658;DHT22;9458;50.942;5.074;2022-11-14T00:25:57;7.10;99.90
18658;DHT22;9458;50.942;5.074;2022-11-14T00:28:25;7.10;99.90
18658;DHT22;9458;50.942;5.074;2022-11-14T00:30:54;7.10;99.90
18658;DHT22;9458;50.942;5.074;2022-11-14T00:33:22;7.10;99.90
18658;DHT22;9458;50.942;5.074;2022-11-14T00:35:51;7.00;99.90
18658;DHT22;9458;50.942;5.074;2022-11-14T00:38:22;7.10;99.90
18658;DHT22;9458;50.942;5.074;2022-11-14T00:40:50;7.00;99.90
18658;DHT22;9458;50.942;5.074;2022-11-14T00:43:18;7.00;99.90
18658;DHT22;9458;50.942;5.074;2022-11-14T00:45:46;6.90;99.90
18658;DHT22;9458;50.942;5.074;2022-11-14T00:48:16;6.90;99.90
18658;DHT22;9458;50.942;5.074;2022-11-14T00:50:44;6.90;99.90
18658;DHT22;9458;50.942;5.074;2022-11-14T00:53:12;6.90;99.90
18658;DHT22;9458;50.942;5.074;2022-11-14T00:55:42;6.90;99.90
18658;DHT22;9458;50.942;5.074;2022-11-14T00:58:11;6.90;99.90
18658;DHT22;9458;50.942;5.074;2022-11-14T01:00:39;6.90;99.90
18658;DHT22;9458;50.942;5.074;2022-11-14T01:03:09;6.90;99.90
18658;DHT22;9458;50.942;5.074;2022-11-14T01:05:42;6.80;99.90
18658;DHT22;9458;50.942;5.074;2022-11-14T01:08:10;6.80;99.90
18658;DHT22;9458;50.942;5.074;2022-11-14T01:10:39;6.80;99.90
18658;DHT22;9458;50.942;5.074;2022-11-14T01:13:10;6.80;99.90
18658;DHT22;9458;50.942;5.074;2022-11-14T01:15:38;6.70;99.90
18658;DHT22;9458;50.942;5.074;2022-11-14T01:18:10;6.70;99.90
18658;DHT22;9458;50.942;5.074;2022-11-14T01:20:41;6.70;99.90
18658;DHT22;9458;50.942;5.074;2022-11-14T01:23:10;6.70;99.90
18658;DHT22;9458;50.942;5.074;2022-11-14T01:25:40;6.70;99.90
18658;DHT22;9458;50.942;5.074;2022-11-14T01:28:16;6.70;99.90
18658;DHT22;9458;50.942;5.074;2022-11-14T01:30:45;6.70;99.90
18658;DHT22;9458;50.942;5.074;2022-11-14T01:33:15;6.60;99.90
18658;DHT22;9458;50.942;5.074;2022-11-14T01:35:44;6.60;99.90
18658;DHT22;9458;50.942;5.074;2022-11-14T01:38:14;6.60;99.90
18658;DHT22;9458;50.942;5.074;2022-11-14T01:40:42;6.50;99.90
18658;DHT22;9458;50.942;5.074;2022-11-14T01:43:29;6.60;99.90
18658;DHT22;9458;50.942;5.074;2022-11-14T01:46:00;6.50;99.90
18658;DHT22;9458;50.942;5.074;2022-11-14T01:48:36;6.40;99.90
18658;DHT22;9458;50.942;5.074;2022-11-14T01:51:20;6.40;99.90
18658;DHT22;9458;50.942;5.074;2022-11-14T01:53:54;6.40;99.90
18658;DHT22;9458;50.942;5.074;2022-11-14T01:56:26;6.40;99.90
18658;DHT22;9458;50.942;5.074;2022-11-14T01:59:01;6.40;99.90
18658;DHT22;9458;50.942;5.074;2022-11-14T02:01:31;6.30;99.90
18658;DHT22;9458;50.942;5.074;2022-11-14T02:04:01;6.30;99.90
18658;DHT22;9458;50.942;5.074;2022-11-14T02:06:31;6.30;99.90
18658;DHT22;9458;50.942;5.074;2022-11-14T02:09:01;6.30;99.90
18658;DHT22;9458;50.942;5.074;2022-11-14T02:11:31;6.30;99.90
18658;DHT22;9458;50.942;5.074;2022-11-14T02:14:02;6.30;99.90
18658;DHT22;9458;50.942;5.074;2022-11-14T02:16:29;6.30;99.90
18658;DHT22;9458;50.942;5.074;2022-11-14T02:18:57;6.30;99.90
18658;DHT22;9458;50.942;5.074;2022-11-14T02:21:25;6.30;99.90
18658;DHT22;9458;50.942;5.074;2022-11-14T02:23:53;6.20;99.90
18658;DHT22;9458;50.942;5.074;2022-11-14T02:26:22;6.20;99.90
18658;DHT22;9458;50.942;5.074;2022-11-14T02:28:50;6.20;99.90
18658;DHT22;9458;50.942;5.074;2022-11-14T02:31:17;6.20;99.90
18658;DHT22;9458;50.942;5.074;2022-11-14T02:33:45;6.10;99.90
18658;DHT22;9458;50.942;5.074;2022-11-14T02:36:12;6.10;99.90
18658;DHT22;9458;50.942;5.074;2022-11-14T02:38:40;6.00;99.90
18658;DHT22;9458;50.942;5.074;2022-11-14T02:41:08;6.00;99.90
18658;DHT22;9458;50.942;5.074;2022-11-14T02:43:35;6.00;99.90
18658;DHT22;9458;50.942;5.074;2022-11-14T02:46:03;6.00;99.90
18658;DHT22;9458;50.942;5.074;2022-11-14T02:48:31;6.00;99.90
18658;DHT22;9458;50.942;5.074;2022-11-14T02:50:59;6.00;99.90
18658;DHT22;9458;50.942;5.074;2022-11-14T02:53:27;6.00;99.90
18658;DHT22;9458;50.942;5.074;2022-11-14T02:55:56;6.00;99.90
18658;DHT22;9458;50.942;5.074;2022-11-14T02:58:24;6.00;99.90
18658;DHT22;9458;50.942;5.074;2022-11-14T03:00:53;6.00;99.90
18658;DHT22;9458;50.942;5.074;2022-11-14T03:03:21;5.90;99.90
18658;DHT22;9458;50.942;5.074;2022-11-14T03:05:49;6.00;99.90
18658;DHT22;9458;50.942;5.074;2022-11-14T03:08:18;5.90;99.90
18658;DHT22;9458;50.942;5.074;2022-11-14T03:10:45;5.90;99.90
18658;DHT22;9458;50.942;5.074;2022-11-14T03:13:15;5.90;99.90
18658;DHT22;9458;50.942;5.074;2022-11-14T03:15:42;6.00;99.90
18658;DHT22;9458;50.942;5.074;2022-11-14T03:18:10;6.00;99.90
18658;DHT22;9458;50.942;5.074;2022-11-14T03:20:38;5.90;99.90
18658;DHT22;9458;50.942;5.074;2022-11-14T03:23:06;6.00;99.90
18658;DHT22;9458;50.942;5.074;2022-11-14T03:25:34;5.90;99.90
18658;DHT22;9458;50.942;5.074;2022-11-14T03:28:02;5.90;99.90
18658;DHT22;9458;50.942;5.074;2022-11-14T03:30:30;5.90;99.90
18658;DHT22;9458;50.942;5.074;2022-11-14T03:32:59;5.80;99.90
18658;DHT22;9458;50.942;5.074;2022-11-14T03:35:26;5.80;99.90
18658;DHT22;9458;50.942;5.074;2022-11-14T03:37:54;5.80;99.90
18658;DHT22;9458;50.942;5.074;2022-11-14T03:40:21;5.70;99.90
18658;DHT22;9458;50.942;5.074;2022-11-14T03:42:48;5.70;99.90
18658;DHT22;9458;50.942;5.074;2022-11-14T03:45:17;5.70;99.90
18658;DHT22;9458;50.942;5.074;2022-11-14T03:47:46;5.70;99.90
18658;DHT22;9458;50.942;5.074;2022-11-14T03:50:14;5.60;99.90
18658;DHT22;9458;50.942;5.074;2022-11-14T03:52:41;5.60;99.90
18658;DHT22;9458;50.942;5.074;2022-11-14T03:55:09;5.50;99.90
18658;DHT22;9458;50.942;5.074;2022-11-14T03:57:37;5.50;99.90
18658;DHT22;9458;50.942;5.074;2022-11-14T04:00:06;5.50;99.90
18658;DHT22;9458;50.942;5.074;2022-11-14T04:02:35;5.50;99.90
18658;DHT22;9458;50.942;5.074;2022-11-14T04:05:05;5.50;99.90
18658;DHT22;9458;50.942;5.074;2022-11-14T04:07:33;5.50;99.90
18658;DHT22;9458;50.942;5.074;2022-11-14T04:10:01;5.50;99.90
18658;DHT22;9458;50.942;5.074;2022-11-14T04:12:30;5.50;99.90
18658;DHT22;9458;50.942;5.074;2022-11-14T04:14:57;5.50;99.90
18658;DHT22;9458;50.942;5.074;2022-11-14T04:17:25;5.50;99.90
18658;DHT22;9458;50.942;5.074;2022-11-14T04:19:52;5.50;99.90
18658;DHT22;9458;50.942;5.074;2022-11-14T04:22:22;5.50;99.90
18658;DHT22;9458;50.942;5.074;2022-11-14T04:24:50;5.40;99.90
18658;DHT22;9458;50.942;5.074;2022-11-14T04:27:17;5.50;99.90
18658;DHT22;9458;50.942;5.074;2022-11-14T04:29:44;5.40;99.90
18658;DHT22;9458;50.942;5.074;2022-11-14T04:32:12;5.40;99.90
18658;DHT22;9458;50.942;5.074;2022-11-14T04:34:39;5.40;99.90
18658;DHT22;9458;50.942;5.074;2022-11-14T04:37:07;5.40;99.90
18658;DHT22;9458;50.942;5.074;2022-11-14T04:39:37;5.40;99.90
18658;DHT22;9458;50.942;5.074;2022-11-14T04:42:04;5.40;99.90
18658;DHT22;9458;50.942;5.074;2022-11-14T04:44:33;5.30;99.90
18658;DHT22;9458;50.942;5.074;2022-11-14T04:47:01;5.40;99.90
18658;DHT22;9458;50.942;5.074;2022-11-14T04:49:28;5.30;99.90
18658;DHT22;9458;50.942;5.074;2022-11-14T04:51:56;5.30;99.90
18658;DHT22;9458;50.942;5.074;2022-11-14T04:54:24;5.30;99.90
18658;DHT22;9458;50.942;5.074;2022-11-14T04:56:54;5.30;99.90
18658;DHT22;9458;50.942;5.074;2022-11-14T04:59:22;5.30;99.90
18658;DHT22;9458;50.942;5.074;2022-11-14T05:01:50;5.30;99.90
18658;DHT22;9458;50.942;5.074;2022-11-14T05:04:17;5.30;99.90
18658;DHT22;9458;50.942;5.074;2022-11-14T05:06:46;5.30;99.90
18658;DHT22;9458;50.942;5.074;2022-11-14T05:09:13;5.30;99.90
18658;DHT22;9458;50.942;5.074;2022-11-14T05:11:41;5.30;99.90
18658;DHT22;9458;50.942;5.074;2022-11-14T05:14:10;5.30;99.90
18658;DHT22;9458;50.942;5.074;2022-11-14T05:16:38;5.20;99.90
18658;DHT22;9458;50.942;5.074;2022-11-14T05:19:06;5.30;99.90
18658;DHT22;9458;50.942;5.074;2022-11-14T05:21:33;5.30;99.90
18658;DHT22;9458;50.942;5.074;2022-11-14T05:24:01;5.30;99.90
18658;DHT22;9458;50.942;5.074;2022-11-14T05:26:29;5.30;99.90
18658;DHT22;9458;50.942;5.074;2022-11-14T05:28:56;5.30;99.90
18658;DHT22;9458;50.942;5.074;2022-11-14T05:31:26;5.30;99.90
18658;DHT22;9458;50.942;5.074;2022-11-14T05:33:53;5.20;99.90
18658;DHT22;9458;50.942;5.074;2022-11-14T05:36:21;5.20;99.90
18658;DHT22;9458;50.942;5.074;2022-11-14T05:38:48;5.20;99.90
18658;DHT22;9458;50.942;5.074;2022-11-14T05:41:17;5.10;99.90
18658;DHT22;9458;50.942;5.074;2022-11-14T05:43:46;5.20;99.90
18658;DHT22;9458;50.942;5.074;2022-11-14T05:46:14;5.10;99.90
18658;DHT22;9458;50.942;5.074;2022-11-14T05:48:44;5.10;99.90
18658;DHT22;9458;50.942;5.074;2022-11-14T05:51:12;5.10;99.90
18658;DHT22;9458;50.942;5.074;2022-11-14T05:53:40;5.10;99.90
18658;DHT22;9458;50.942;5.074;2022-11-14T05:56:10;5.10;99.90
18658;DHT22;9458;50.942;5.074;2022-11-14T05:58:38;5.10;99.90
18658;DHT22;9458;50.942;5.074;2022-11-14T06:01:09;5.10;99.90
18658;DHT22;9458;50.942;5.074;2022-11-14T06:03:38;5.10;99.90
18658;DHT22;9458;50.942;5.074;2022-11-14T06:06:11;5.10;99.90
18658;DHT22;9458;50.942;5.074;2022-11-14T06:08:40;5.10;99.90
18658;DHT22;9458;50.942;5.074;2022-11-14T06:11:10;5.10;99.90
18658;DHT22;9458;50.942;5.074;2022-11-14T06:13:38;5.10;99.90
18658;DHT22;9458;50.942;5.074;2022-11-14T06:16:08;5.10;99.90
18658;DHT22;9458;50.942;5.074;2022-11-14T06:18:38;5.00;99.90
18658;DHT22;9458;50.942;5.074;2022-11-14T06:21:10;5.00;99.90
18658;DHT22;9458;50.942;5.074;2022-11-14T06:23:38;5.00;99.90
18658;DHT22;9458;50.942;5.074;2022-11-14T06:26:12;5.00;99.90
18658;DHT22;9458;50.942;5.074;2022-11-14T06:28:42;5.00;99.90
18658;DHT22;9458;50.942;5.074;2022-11-14T06:31:09;5.00;99.90
18658;DHT22;9458;50.942;5.074;2022-11-14T06:33:37;5.00;99.90
18658;DHT22;9458;50.942;5.074;2022-11-14T06:36:09;4.90;99.90
18658;DHT22;9458;50.942;5.074;2022-11-14T06:38:38;4.90;99.90
18658;DHT22;9458;50.942;5.074;2022-11-14T06:41:08;5.00;99.90
18658;DHT22;9458;50.942;5.074;2022-11-14T06:43:39;4.90;99.90
18658;DHT22;9458;50.942;5.074;2022-11-14T06:46:09;5.00;99.90
18658;DHT22;9458;50.942;5.074;2022-11-14T06:48:37;5.00;99.90
18658;DHT22;9458;50.942;5.074;2022-11-14T06:51:06;5.00;99.90
18658;DHT22;9458;50.942;5.074;2022-11-14T06:53:35;5.00;99.90
18658;DHT22;9458;50.942;5.074;2022-11-14T06:56:05;5.00;99.90
18658;DHT22;9458;50.942;5.074;2022-11-14T06:58:36;5.00;99.90
18658;DHT22;9458;50.942;5.074;2022-11-14T07:01:07;5.00;99.90
18658;DHT22;9458;50.942;5.074;2022-11-14T07:03:38;5.00;99.90
18658;DHT22;9458;50.942;5.074;2022-11-14T07:06:08;5.00;99.90
18658;DHT22;9458;50.942;5.074;2022-11-14T07:08:37;5.00;99.90
18658;DHT22;9458;50.942;5.074;2022-11-14T07:11:07;5.00;99.90
18658;DHT22;9458;50.942;5.074;2022-11-14T07:13:35;5.00;99.90
18658;DHT22;9458;50.942;5.074;2022-11-14T07:16:04;5.00;99.90
18658;DHT22;9458;50.942;5.074;2022-11-14T07:18:33;5.10;99.90
18658;DHT22;9458;50.942;5.074;2022-11-14T07:21:02;5.10;99.90
18658;DHT22;9458;50.942;5.074;2022-11-14T07:23:32;5.20;99.90
18658;DHT22;9458;50.942;5.074;2022-11-14T07:26:03;5.40;99.90
18658;DHT22;9458;50.942;5.074;2022-11-14T07:28:35;5.50;99.90
18658;DHT22;9458;50.942;5.074;2022-11-14T07:31:03;5.90;99.90
18658;DHT22;9458;50.942;5.074;2022-11-14T07:33:32;6.30;99.90
18658;DHT22;9458;50.942;5.074;2022-11-14T07:36:12;6.70;99.90
18658;DHT22;9458;50.942;5.074;2022-11-14T07:38:40;6.80;99.90
18658;DHT22;9458;50.942;5.074;2022-11-14T07:41:11;6.90;99.90
18658;DHT22;9458;50.942;5.074;2022-11-14T07:43:40;7.00;99.90
18658;DHT22;9458;50.942;5.074;2022-11-14T07:46:10;7.30;99.90
18658;DHT22;9458;50.942;5.074;2022-11-14T07:48:39;7.80;99.90
18658;DHT22;9458;50.942;5.074;2022-11-14T07:51:09;8.40;99.90
18658;DHT22;9458;50.942;5.074;2022-11-14T07:53:40;8.70;99.90
18658;DHT22;9458;50.942;5.074;2022-11-14T07:56:11;8.60;99.90
18658;DHT22;9458;50.942;5.074;2022-11-14T07:58:40;8.30;99.90
18658;DHT22;9458;50.942;5.074;2022-11-14T08:01:10;7.90;99.90
18658;DHT22;9458;50.942;5.074;2022-11-14T08:03:40;7.70;99.90
18658;DHT22;9458;50.942;5.074;2022-11-14T08:06:09;7.60;99.90
18658;DHT22;9458;50.942;5.074;2022-11-14T08:08:38;7.60;99.90
18658;DHT22;9458;50.942;5.074;2022-11-14T08:11:06;7.80;99.90
18658;DHT22;9458;50.942;5.074;2022-11-14T08:13:36;8.30;99.90
18658;DHT22;9458;50.942;5.074;2022-11-14T08:16:05;9.30;99.90
18658;DHT22;9458;50.942;5.074;2022-11-14T08:18:33;10.50;99.90
18658;DHT22;9458;50.942;5.074;2022-11-14T08:21:03;11.70;99.90
18658;DHT22;9458;50.942;5.074;2022-11-14T08:23:31;12.50;99.90
18658;DHT22;9458;50.942;5.074;2022-11-14T08:25:59;13.10;99.90
18658;DHT22;9458;50.942;5.074;2022-11-14T08:28:26;13.60;99.90
18658;DHT22;9458;50.942;5.074;2022-11-14T08:30:59;14.00;99.90
18658;DHT22;9458;50.942;5.074;2022-11-14T08:33:28;14.20;99.90
18658;DHT22;9458;50.942;5.074;2022-11-14T08:35:59;14.40;99.90
18658;DHT22;9458;50.942;5.074;2022-11-14T08:38:27;14.70;99.90
18658;DHT22;9458;50.942;5.074;2022-11-14T08:40:57;14.90;99.90
18658;DHT22;9458;50.942;5.074;2022-11-14T08:43:25;15.20;99.90
18658;DHT22;9458;50.942;5.074;2022-11-14T08:45:56;15.50;99.90
18658;DHT22;9458;50.942;5.074;2022-11-14T08:48:26;15.70;99.90
18658;DHT22;9458;50.942;5.074;2022-11-14T08:50:54;16.00;99.90
18658;DHT22;9458;50.942;5.074;2022-11-14T08:53:22;16.20;99.90
18658;DHT22;9458;50.942;5.074;2022-11-14T08:55:50;16.40;99.90
18658;DHT22;9458;50.942;5.074;2022-11-14T08:58:17;16.70;99.90
18658;DHT22;9458;50.942;5.074;2022-11-14T09:00:45;16.90;99.90
18658;DHT22;9458;50.942;5.074;2022-11-14T09:03:14;17.10;99.90
18658;DHT22;9458;50.942;5.074;2022-11-14T09:05:49;17.20;99.90
18658;DHT22;9458;50.942;5.074;2022-11-14T09:08:17;16.80;99.90
18658;DHT22;9458;50.942;5.074;2022-11-14T09:10:44;15.60;99.90
18658;DHT22;9458;50.942;5.074;2022-11-14T09:13:12;14.70;99.90
18658;DHT22;9458;50.942;5.074;2022-11-14T09:15:41;14.00;99.90
18658;DHT22;9458;50.942;5.074;2022-11-14T09:18:10;13.40;99.90
18658;DHT22;9458;50.942;5.074;2022-11-14T09:20:38;12.90;99.90
18658;DHT22;9458;50.942;5.074;2022-11-14T09:23:09;12.50;99.90
18658;DHT22;9458;50.942;5.074;2022-11-14T09:25:37;12.10;99.90
18658;DHT22;9458;50.942;5.074;2022-11-14T09:28:06;11.80;99.90
18658;DHT22;9458;50.942;5.074;2022-11-14T09:30:35;11.50;99.90
18658;DHT22;9458;50.942;5.074;2022-11-14T09:33:03;11.30;99.90
18658;DHT22;9458;50.942;5.074;2022-11-14T09:35:31;11.10;99.90
18658;DHT22;9458;50.942;5.074;2022-11-14T09:37:59;10.90;99.90
18658;DHT22;9458;50.942;5.074;2022-11-14T09:40:30;10.90;99.90
18658;DHT22;9458;50.942;5.074;2022-11-14T09:43:19;10.80;99.90
18658;DHT22;9458;50.942;5.074;2022-11-14T09:45:51;10.70;99.90
18658;DHT22;9458;50.942;5.074;2022-11-14T09:48:22;10.70;99.90
18658;DHT22;9458;50.942;5.074;2022-11-14T09:51:06;10.60;99.90
18658;DHT22;9458;50.942;5.074;2022-11-14T09:53:38;10.70;99.90
18658;DHT22;9458;50.942;5.074;2022-11-14T09:56:22;10.50;99.90
18658;DHT22;9458;50.942;5.074;2022-11-14T09:58:52;10.50;99.90
18658;DHT22;9458;50.942;5.074;2022-11-14T10:01:31;10.40;99.90
18658;DHT22;9458;50.942;5.074;2022-11-14T10:04:12;10.40;99.90
18658;DHT22;9458;50.942;5.074;2022-11-14T10:06:50;10.40;99.90
18658;DHT22;9458;50.942;5.074;2022-11-14T10:09:37;10.40;99.90
18658;DHT22;9458;50.942;5.074;2022-11-14T10:12:13;10.30;99.90
18658;DHT22;9458;50.942;5.074;2022-11-14T10:14:56;10.30;99.90
18658;DHT22;9458;50.942;5.074;2022-11-14T10:17:39;10.30;99.90
18658;DHT22;9458;50.942;5.074;2022-11-14T10:20:17;10.30;99.90
18658;DHT22;9458;50.942;5.074;2022-11-14T10:23:00;10.30;99.90
18658;DHT22;9458;50.942;5.074;2022-11-14T10:25:40;10.30;99.90
18658;DHT22;9458;50.942;5.074;2022-11-14T10:28:32;10.40;99.90
18658;DHT22;9458;50.942;5.074;2022-11-14T10:31:06;10.40;99.90
18658;DHT22;9458;50.942;5.074;2022-11-14T10:33:45;10.40;99.90
18658;DHT22;9458;50.942;5.074;2022-11-14T10:36:20;10.30;99.90
18658;DHT22;9458;50.942;5.074;2022-11-14T10:38:58;10.30;99.90
18658;DHT22;9458;50.942;5.074;2022-11-14T10:41:30;10.30;99.90
18658;DHT22;9458;50.942;5.074;2022-11-14T10:43:59;10.30;99.90
18658;DHT22;9458;50.942;5.074;2022-11-14T10:46:31;10.20;99.90
18658;DHT22;9458;50.942;5.074;2022-11-14T10:49:01;10.20;99.90
18658;DHT22;9458;50.942;5.074;2022-11-14T10:51:33;10.20;99.90
18658;DHT22;9458;50.942;5.074;2022-11-14T10:54:08;10.10;99.90
18658;DHT22;9458;50.942;5.074;2022-11-14T10:56:45;10.10;99.90
18658;DHT22;9458;50.942;5.074;2022-11-14T10:59:16;10.10;99.90
18658;DHT22;9458;50.942;5.074;2022-11-14T11:01:53;10.10;99.90
18658;DHT22;9458;50.942;5.074;2022-11-14T11:04:25;10.10;99.90
18658;DHT22;9458;50.942;5.074;2022-11-14T11:06:55;10.10;99.90
18658;DHT22;9458;50.942;5.074;2022-11-14T11:09:24;10.10;99.90
18658;DHT22;9458;50.942;5.074;2022-11-14T11:12:15;10.10;99.90
18658;DHT22;9458;50.942;5.074;2022-11-14T11:14:48;10.10;99.90
18658;DHT22;9458;50.942;5.074;2022-11-14T11:17:18;10.10;99.90
18658;DHT22;9458;50.942;5.074;2022-11-14T11:19:48;10.10;99.90
18658;DHT22;9458;50.942;5.074;2022-11-14T11:22:28;10.00;99.90
18658;DHT22;9458;50.942;5.074;2022-11-14T11:24:57;10.00;99.90
18658;DHT22;9458;50.942;5.074;2022-11-14T11:27:26;10.00;99.90
18658;DHT22;9458;50.942;5.074;2022-11-14T11:30:19;10.10;99.90
18658;DHT22;9458;50.942;5.074;2022-11-14T11:32:48;10.10;99.90
18658;DHT22;9458;50.942;5.074;2022-11-14T11:35:17;10.10;99.90
18658;DHT22;9458;50.942;5.074;2022-11-14T11:37:49;10.10;99.90
18658;DHT22;9458;50.942;5.074;2022-11-14T11:40:22;10.00;99.90
18658;DHT22;9458;50.942;5.074;2022-11-14T11:42:56;10.00;99.90
18658;DHT22;9458;50.942;5.074;2022-11-14T11:45:28;10.00;99.90
18658;DHT22;9458;50.942;5.074;2022-11-14T11:47:58;10.10;99.90
18658;DHT22;9458;50.942;5.074;2022-11-14T11:50:27;10.10;99.90
18658;DHT22;9458;50.942;5.074;2022-11-14T11:53:02;10.10;99.90
18658;DHT22;9458;50.942;5.074;2022-11-14T11:55:41;10.10;99.90
18658;DHT22;9458;50.942;5.074;2022-11-14T11:58:15;10.10;99.90
18658;DHT22;9458;50.942;5.074;2022-11-14T12:00:50;10.10;99.90
18658;DHT22;9458;50.942;5.074;2022-11-14T12:03:20;10.10;99.90
18658;DHT22;9458;50.942;5.074;2022-11-14T12:05:57;10.10;99.90
18658;DHT22;9458;50.942;5.074;2022-11-14T12:08:35;10.10;99.90
18658;DHT22;9458;50.942;5.074;2022-11-14T12:11:08;10.10;99.90
18658;DHT22;9458;50.942;5.074;2022-11-14T12:14:04;10.10;99.90
18658;DHT22;9458;50.942;5.074;2022-11-14T12:16:51;10.10;99.90
18658;DHT22;9458;50.942;5.074;2022-11-14T12:19:42;10.00;99.90
18658;DHT22;9458;50.942;5.074;2022-11-14T12:22:30;10.00;99.90
18658;DHT22;9458;50.942;5.074;2022-11-14T12:28:44;10.00;99.90
18658;DHT22;9458;50.942;5.074;2022-11-14T12:31:19;10.00;99.90
18658;DHT22;9458;50.942;5.074;2022-11-14T12:33:55;10.00;99.90
18658;DHT22;9458;50.942;5.074;2022-11-14T12:36:28;10.00;99.90
18658;DHT22;9458;50.942;5.074;2022-11-14T12:38:56;10.00;99.90
18658;DHT22;9458;50.942;5.074;2022-11-14T12:41:26;10.00;99.90
18658;DHT22;9458;50.942;5.074;2022-11-14T12:44:17;10.10;99.90
18658;DHT22;9458;50.942;5.074;2022-11-14T12:47:13;10.10;99.90
18658;DHT22;9458;50.942;5.074;2022-11-14T12:50:31;10.10;99.90
18658;DHT22;9458;50.942;5.074;2022-11-14T12:53:40;10.20;99.90
18658;DHT22;9458;50.942;5.074;2022-11-14T12:59:21;10.20;99.90
18658;DHT22;9458;50.942;5.074;2022-11-14T13:02:01;10.20;99.90
18658;DHT22;9458;50.942;5.074;2022-11-14T13:04:39;10.20;99.90
18658;DHT22;9458;50.942;5.074;2022-11-14T13:07:23;10.20;99.90
18658;DHT22;9458;50.942;5.074;2022-11-14T13:10:10;10.10;99.90
18658;DHT22;9458;50.942;5.074;2022-11-14T13:12:40;10.10;99.90
18658;DHT22;9458;50.942;5.074;2022-11-14T13:15:30;10.00;99.90
18658;DHT22;9458;50.942;5.074;2022-11-14T13:18:20;10.00;99.90
18658;DHT22;9458;50.942;5.074;2022-11-14T13:21:16;9.90;99.90
18658;DHT22;9458;50.942;5.074;2022-11-14T13:24:04;10.00;99.90
18658;DHT22;9458;50.942;5.074;2022-11-14T13:26:40;10.00;99.90
18658;DHT22;9458;50.942;5.074;2022-11-14T13:32:54;9.90;99.90
18658;DHT22;9458;50.942;5.074;2022-11-14T13:35:36;10.00;99.90
18658;DHT22;9458;50.942;5.074;2022-11-14T13:42:25;9.90;99.90
18658;DHT22;9458;50.942;5.074;2022-11-14T13:51:13;9.90;99.90
18658;DHT22;9458;50.942;5.074;2022-11-14T13:53:43;9.80;99.90
18658;DHT22;9458;50.942;5.074;2022-11-14T13:56:22;9.90;99.90
18658;DHT22;9458;50.942;5.074;2022-11-14T13:59:25;9.80;99.90
18658;DHT22;9458;50.942;5.074;2022-11-14T14:02:21;9.90;99.90
18658;DHT22;9458;50.942;5.074;2022-11-14T14:05:03;9.80;99.90
18658;DHT22;9458;50.942;5.074;2022-11-14T14:07:49;9.80;99.90
18658;DHT22;9458;50.942;5.074;2022-11-14T14:10:26;9.90;99.90
18658;DHT22;9458;50.942;5.074;2022-11-14T14:13:06;9.90;99.90
18658;DHT22;9458;50.942;5.074;2022-11-14T14:15:46;9.80;99.90
18658;DHT22;9458;50.942;5.074;2022-11-14T14:18:26;9.80;99.90
18658;DHT22;9458;50.942;5.074;2022-11-14T14:21:07;9.80;99.90
18658;DHT22;9458;50.942;5.074;2022-11-14T14:23:42;9.80;99.90
18658;DHT22;9458;50.942;5.074;2022-11-14T14:26:19;9.90;99.90
18658;DHT22;9458;50.942;5.074;2022-11-14T14:28:56;9.90;99.90
18658;DHT22;9458;50.942;5.074;2022-11-14T14:31:35;9.90;99.90
18658;DHT22;9458;50.942;5.074;2022-11-14T14:34:20;9.90;99.90
18658;DHT22;9458;50.942;5.074;2022-11-14T14:36:49;10.00;99.90
18658;DHT22;9458;50.942;5.074;2022-11-14T14:39:19;9.90;99.90
18658;DHT22;9458;50.942;5.074;2022-11-14T14:41:48;9.90;99.90
18658;DHT22;9458;50.942;5.074;2022-11-14T14:44:21;10.00;99.90
18658;DHT22;9458;50.942;5.074;2022-11-14T14:46:53;9.90;99.90
18658;DHT22;9458;50.942;5.074;2022-11-14T14:49:22;9.90;99.90
18658;DHT22;9458;50.942;5.074;2022-11-14T14:51:51;9.90;99.90
18658;DHT22;9458;50.942;5.074;2022-11-14T14:54:23;9.80;99.90
18658;DHT22;9458;50.942;5.074;2022-11-14T14:56:55;9.90;99.90
18658;DHT22;9458;50.942;5.074;2022-11-14T14:59:27;9.90;99.90
18658;DHT22;9458;50.942;5.074;2022-11-14T15:01:57;9.90;99.90
18658;DHT22;9458;50.942;5.074;2022-11-14T15:04:26;9.80;99.90
18658;DHT22;9458;50.942;5.074;2022-11-14T15:06:55;9.80;99.90
18658;DHT22;9458;50.942;5.074;2022-11-14T15:09:25;9.80;99.90
18658;DHT22;9458;50.942;5.074;2022-11-14T15:11:56;9.80;99.90
18658;DHT22;9458;50.942;5.074;2022-11-14T15:14:29;9.80;99.90
18658;DHT22;9458;50.942;5.074;2022-11-14T15:16:59;9.70;99.90
18658;DHT22;9458;50.942;5.074;2022-11-14T15:19:31;9.80;99.90
18658;DHT22;9458;50.942;5.074;2022-11-14T15:22:03;9.80;99.90
18658;DHT22;9458;50.942;5.074;2022-11-14T15:24:32;9.80;99.90
18658;DHT22;9458;50.942;5.074;2022-11-14T15:27:02;9.90;99.90
18658;DHT22;9458;50.942;5.074;2022-11-14T15:29:32;9.90;99.90
18658;DHT22;9458;50.942;5.074;2022-11-14T15:32:03;9.90;99.90
18658;DHT22;9458;50.942;5.074;2022-11-14T15:34:33;9.80;99.90
18658;DHT22;9458;50.942;5.074;2022-11-14T15:37:20;9.80;99.90
18658;DHT22;9458;50.942;5.074;2022-11-14T15:39:49;9.80;99.90
18658;DHT22;9458;50.942;5.074;2022-11-14T15:42:26;9.80;99.90
18658;DHT22;9458;50.942;5.074;2022-11-14T15:44:55;9.80;99.90
18658;DHT22;9458;50.942;5.074;2022-11-14T15:47:26;9.80;99.90
18658;DHT22;9458;50.942;5.074;2022-11-14T15:50:00;9.80;99.90
18658;DHT22;9458;50.942;5.074;2022-11-14T15:52:32;9.80;99.90
18658;DHT22;9458;50.942;5.074;2022-11-14T15:55:02;9.80;99.90
18658;DHT22;9458;50.942;5.074;2022-11-14T15:57:31;9.80;99.90
18658;DHT22;9458;50.942;5.074;2022-11-14T16:00:02;9.80;99.90
18658;DHT22;9458;50.942;5.074;2022-11-14T16:02:33;9.70;99.90
18658;DHT22;9458;50.942;5.074;2022-11-14T16:05:11;9.70;99.90
18658;DHT22;9458;50.942;5.074;2022-11-14T16:07:39;9.70;99.90
18658;DHT22;9458;50.942;5.074;2022-11-14T16:10:13;9.70;99.90
18658;DHT22;9458;50.942;5.074;2022-11-14T16:12:41;9.70;99.90
18658;DHT22;9458;50.942;5.074;2022-11-14T16:15:09;9.70;99.90
18658;DHT22;9458;50.942;5.074;2022-11-14T16:17:40;9.70;99.90
18658;DHT22;9458;50.942;5.074;2022-11-14T16:20:13;9.70;99.90
18658;DHT22;9458;50.942;5.074;2022-11-14T16:22:45;9.70;99.90
18658;DHT22;9458;50.942;5.074;2022-11-14T16:25:17;9.70;99.90
18658;DHT22;9458;50.942;5.074;2022-11-14T16:27:45;9.70;99.90
18658;DHT22;9458;50.942;5.074;2022-11-14T16:30:15;9.70;99.90
18658;DHT22;9458;50.942;5.074;2022-11-14T16:32:46;9.70;99.90
18658;DHT22;9458;50.942;5.074;2022-11-14T16:35:16;9.70;99.90
18658;DHT22;9458;50.942;5.074;2022-11-14T16:37:47;9.70;99.90
18658;DHT22;9458;50.942;5.074;2022-11-14T16:40:16;9.60;99.90
18658;DHT22;9458;50.942;5.074;2022-11-14T16:42:47;9.60;99.90
18658;DHT22;9458;50.942;5.074;2022-11-14T16:45:15;9.70;99.90
18658;DHT22;9458;50.942;5.074;2022-11-14T16:47:45;9.70;99.90